createdAt,value
2022-12-31T00:01:32.793Z,27.46
2022-12-31T00:04:01.261Z,27.65
2022-12-31T00:06:36.252Z,27.66
2022-12-31T00:09:06.957Z,27.51
2022-12-31T00:11:36.736Z,27.62
2022-12-31T00:14:05.810Z,27.58
2022-12-31T00:16:37.505Z,27.54
2022-12-31T00:19:07.840Z,27.63
2022-12-31T00:21:37.537Z,27.85
2022-12-31T00:24:07.136Z,28.26
2022-12-31T00:26:35.702Z,28.05
2022-12-31T00:29:05.253Z,27.79
2022-12-31T00:31:36.275Z,28.03
2022-12-31T00:34:05.720Z,27.74
2022-12-31T00:36:38.819Z,27.83
2022-12-31T00:39:08.316Z,27.97
2022-12-31T00:41:37.853Z,27.99
2022-12-31T00:44:06.184Z,27.89
2022-12-31T00:49:03.207Z,27.45
2022-12-31T00:51:31.637Z,27.55
2022-12-31T00:54:00.259Z,27.35
2022-12-31T00:56:30.704Z,27.21
2022-12-31T00:59:00.356Z,27.11
2022-12-31T01:01:31.967Z,26.89
2022-12-31T01:04:07.705Z,27.03
2022-12-31T01:06:36.577Z,27.13
2022-12-31T01:09:09.822Z,26.96
2022-12-31T01:11:38.291Z,27.02
2022-12-31T01:14:08.778Z,27.45
2022-12-31T01:16:46.399Z,27.05
2022-12-31T01:19:22.310Z,27.04
2022-12-31T01:21:52.475Z,27.17
2022-12-31T01:24:21.485Z,26.96
2022-12-31T01:26:49.763Z,27.27
2022-12-31T01:29:18.251Z,27.43
2022-12-31T01:31:46.497Z,27.16
2022-12-31T01:34:14.708Z,27.17
2022-12-31T01:36:43.175Z,27.24
2022-12-31T01:39:12.423Z,27.55
2022-12-31T01:41:43.889Z,27.54
2022-12-31T01:44:11.992Z,27.37
2022-12-31T01:46:49.923Z,27.70
2022-12-31T01:49:45.138Z,27.45
2022-12-31T01:52:28.541Z,27.54
2022-12-31T01:55:15.046Z,27.55
2022-12-31T01:57:46.856Z,27.62
2022-12-31T02:00:16.396Z,27.93
2022-12-31T02:02:44.765Z,27.71
2022-12-31T02:05:33.285Z,27.79
2022-12-31T02:08:03.118Z,27.92
2022-12-31T02:10:31.272Z,27.86
2022-12-31T02:13:00.204Z,27.89
2022-12-31T02:15:58.305Z,27.95
2022-12-31T02:18:47.091Z,27.70
2022-12-31T02:21:41.923Z,28.06
2022-12-31T02:24:16.112Z,28.03
2022-12-31T02:26:56.395Z,27.92
2022-12-31T02:29:30.309Z,28.21
2022-12-31T02:32:05.425Z,28.15
2022-12-31T02:34:58.448Z,28.13
2022-12-31T02:37:31.672Z,28.17
2022-12-31T02:40:00.928Z,28.41
2022-12-31T02:42:29.143Z,28.34
2022-12-31T02:44:57.339Z,28.38
2022-12-31T02:47:50.467Z,28.30
2022-12-31T02:50:36.269Z,28.27
2022-12-31T02:53:34.337Z,28.30
2022-12-31T02:56:22.673Z,28.30
2022-12-31T02:58:54.294Z,28.30
2022-12-31T03:01:33.004Z,28.17
2022-12-31T03:04:03.424Z,28.35
2022-12-31T03:06:31.998Z,28.37
2022-12-31T03:09:03.243Z,28.33
2022-12-31T03:11:31.807Z,28.19
2022-12-31T03:14:00.035Z,28.23
2022-12-31T03:16:28.453Z,28.22
2022-12-31T03:18:56.835Z,28.36
2022-12-31T03:21:25.330Z,28.40
2022-12-31T03:23:54.995Z,28.57
2022-12-31T03:26:24.433Z,28.52
2022-12-31T03:28:52.883Z,28.69
2022-12-31T03:31:25.126Z,28.55
2022-12-31T03:33:53.580Z,28.79
2022-12-31T03:36:25.133Z,28.69
2022-12-31T03:38:53.826Z,28.70
2022-12-31T03:41:22.026Z,28.74
2022-12-31T03:43:53.218Z,28.83
2022-12-31T03:46:23.816Z,28.56
2022-12-31T03:48:52.567Z,28.54
2022-12-31T03:51:23.934Z,28.73
2022-12-31T03:53:52.223Z,28.69
2022-12-31T03:56:20.891Z,28.69
2022-12-31T03:58:51.952Z,28.65
2022-12-31T04:01:21.469Z,28.52
2022-12-31T04:03:51.365Z,28.67
2022-12-31T04:06:20.194Z,28.68
2022-12-31T04:08:53.171Z,28.85
2022-12-31T04:11:21.869Z,28.71
2022-12-31T04:13:50.541Z,28.53
2022-12-31T04:16:19.323Z,28.53
2022-12-31T04:18:47.923Z,28.95
2022-12-31T04:21:16.535Z,28.80
2022-12-31T04:23:44.830Z,28.88
2022-12-31T04:26:13.427Z,29.20
2022-12-31T04:28:41.686Z,29.03
2022-12-31T04:31:10.410Z,28.87
2022-12-31T04:33:38.734Z,28.79
2022-12-31T04:36:08.668Z,28.93
2022-12-31T04:38:37.149Z,29.18
2022-12-31T04:41:05.729Z,29.15
2022-12-31T04:43:34.174Z,28.94
2022-12-31T04:46:02.860Z,29.13
2022-12-31T04:48:31.627Z,29.03
2022-12-31T04:51:00.152Z,28.91
2022-12-31T04:53:29.087Z,29.16
2022-12-31T04:55:57.638Z,28.98
2022-12-31T04:58:25.949Z,29.05
2022-12-31T05:00:54.686Z,28.80
2022-12-31T05:03:25.381Z,29.04
2022-12-31T05:05:54.608Z,28.98
2022-12-31T05:08:22.986Z,29.19
2022-12-31T05:10:51.568Z,29.14
2022-12-31T05:13:20.165Z,29.41
2022-12-31T05:15:48.906Z,30.01
2022-12-31T05:18:18.403Z,29.96
2022-12-31T05:20:48.453Z,29.90
2022-12-31T05:23:19.745Z,29.69
2022-12-31T05:25:48.948Z,29.80
2022-12-31T05:28:18.433Z,29.75
2022-12-31T05:30:50.465Z,29.54
2022-12-31T05:33:19.188Z,29.55
2022-12-31T05:35:47.683Z,29.62
2022-12-31T05:38:16.153Z,29.54
2022-12-31T05:40:44.984Z,29.55
2022-12-31T05:43:13.212Z,29.71
2022-12-31T05:45:41.584Z,29.56
2022-12-31T05:48:09.804Z,29.47
2022-12-31T05:50:38.057Z,29.71
2022-12-31T05:53:06.361Z,29.87
2022-12-31T05:55:34.599Z,29.64
2022-12-31T05:58:02.764Z,29.70
2022-12-31T06:00:31.153Z,29.64
2022-12-31T06:02:59.471Z,29.60
2022-12-31T06:05:27.791Z,29.60
2022-12-31T06:07:56.511Z,29.73
2022-12-31T06:10:24.987Z,29.79
2022-12-31T06:12:53.180Z,29.83
2022-12-31T06:15:21.465Z,29.72
2022-12-31T06:17:49.764Z,29.91
2022-12-31T06:20:18.047Z,29.92
2022-12-31T06:22:46.592Z,29.78
2022-12-31T06:25:15.045Z,29.79
2022-12-31T06:27:43.283Z,29.99
2022-12-31T06:30:12.520Z,30.03
2022-12-31T06:32:40.867Z,30.15
2022-12-31T06:35:11.323Z,30.15
2022-12-31T06:37:39.594Z,29.96
2022-12-31T06:40:08.504Z,30.07
2022-12-31T06:42:36.806Z,30.04
2022-12-31T06:45:05.844Z,30.21
2022-12-31T06:47:34.473Z,30.00
2022-12-31T06:50:02.618Z,30.11
2022-12-31T06:52:31.086Z,30.23
2022-12-31T06:54:59.594Z,30.15
2022-12-31T06:57:28.117Z,30.22
2022-12-31T06:59:57.185Z,30.09
2022-12-31T07:02:50.659Z,30.02
2022-12-31T07:05:51.491Z,30.21
2022-12-31T07:08:31.447Z,30.19
2022-12-31T07:11:18.290Z,30.08
2022-12-31T07:14:01.451Z,29.98
2022-12-31T07:17:03.649Z,29.99
2022-12-31T07:19:58.161Z,30.02
2022-12-31T07:22:26.731Z,30.13
2022-12-31T07:24:55.669Z,30.49
2022-12-31T07:28:10.601Z,30.46
2022-12-31T07:31:07.829Z,30.57
2022-12-31T07:33:51.784Z,30.40
2022-12-31T07:36:29.846Z,30.25
2022-12-31T07:39:15.790Z,30.33
2022-12-31T07:41:44.000Z,30.14
2022-12-31T07:44:34.051Z,30.07
2022-12-31T07:47:05.538Z,29.96
2022-12-31T07:49:34.650Z,30.12
2022-12-31T07:52:03.335Z,30.50
2022-12-31T07:54:31.600Z,31.02
2022-12-31T07:57:00.335Z,30.51
2022-12-31T08:00:09.020Z,29.67
2022-12-31T08:03:00.392Z,29.72
2022-12-31T08:05:59.494Z,29.22
2022-12-31T08:08:47.850Z,28.06
2022-12-31T08:11:30.822Z,27.17
2022-12-31T08:14:01.951Z,25.73
2022-12-31T08:16:30.629Z,25.15
2022-12-31T08:18:59.288Z,24.89
2022-12-31T08:21:36.569Z,23.33
2022-12-31T08:24:35.139Z,22.75
2022-12-31T08:27:04.006Z,22.10
2022-12-31T08:29:50.678Z,22.02
2022-12-31T08:32:41.096Z,21.15
2022-12-31T08:35:40.750Z,20.10
2022-12-31T08:38:21.359Z,18.57
2022-12-31T08:41:04.643Z,16.95
2022-12-31T08:44:05.332Z,16.49
2022-12-31T08:46:42.699Z,14.55
2022-12-31T08:49:11.299Z,14.53
2022-12-31T08:51:39.783Z,13.74
2022-12-31T08:54:11.315Z,13.16
2022-12-31T08:56:50.333Z,12.79
2022-12-31T08:59:22.235Z,12.20
2022-12-31T09:02:17.763Z,12.25
2022-12-31T09:04:48.970Z,11.93
2022-12-31T09:07:23.124Z,11.51
2022-12-31T09:10:18.389Z,11.36
2022-12-31T09:13:05.811Z,11.55
2022-12-31T09:15:42.208Z,11.76
2022-12-31T09:18:12.500Z,11.39
2022-12-31T09:20:43.751Z,11.27
2022-12-31T09:23:14.139Z,11.17
2022-12-31T09:25:53.862Z,11.14
2022-12-31T09:29:01.879Z,11.24
2022-12-31T09:31:38.881Z,10.88
2022-12-31T09:34:25.292Z,10.79
2022-12-31T09:36:59.230Z,11.09
2022-12-31T09:39:45.623Z,11.15
2022-12-31T09:42:13.591Z,11.03
2022-12-31T09:45:06.352Z,10.46
2022-12-31T09:47:52.867Z,10.50
2022-12-31T09:50:43.150Z,10.08
2022-12-31T09:53:17.049Z,9.87
2022-12-31T09:55:48.144Z,10.07
2022-12-31T09:58:34.697Z,10.25
2022-12-31T10:01:19.272Z,10.31
2022-12-31T10:04:08.733Z,10.71
2022-12-31T10:07:05.354Z,11.17
2022-12-31T10:09:50.098Z,11.25
2022-12-31T10:12:30.931Z,11.17
2022-12-31T10:15:05.027Z,10.99
2022-12-31T10:18:02.406Z,10.82
2022-12-31T10:20:51.346Z,10.66
2022-12-31T10:23:44.702Z,10.80
2022-12-31T10:26:29.394Z,10.75
2022-12-31T10:29:25.508Z,11.10
2022-12-31T10:31:53.664Z,11.24
2022-12-31T10:34:37.100Z,11.38
2022-12-31T10:37:11.221Z,11.66
2022-12-31T10:39:48.736Z,11.84
2022-12-31T10:42:55.021Z,11.67
2022-12-31T10:45:34.689Z,11.76
2022-12-31T10:48:28.713Z,11.61
2022-12-31T10:51:20.946Z,11.12
2022-12-31T10:54:26.820Z,10.73
2022-12-31T10:57:12.764Z,10.34
2022-12-31T10:59:53.396Z,10.97
2022-12-31T11:02:40.699Z,10.94
2022-12-31T11:05:12.026Z,11.13
2022-12-31T11:08:02.321Z,10.88
2022-12-31T11:11:01.668Z,11.03
2022-12-31T11:13:48.837Z,11.91
2022-12-31T11:16:34.487Z,12.77
2022-12-31T11:19:31.215Z,13.46
2022-12-31T11:22:29.863Z,13.63
2022-12-31T11:25:16.275Z,13.10
2022-12-31T11:28:09.682Z,12.66
2022-12-31T11:31:06.436Z,12.68
2022-12-31T11:34:02.627Z,12.59
2022-12-31T11:36:49.905Z,12.43
2022-12-31T11:39:31.396Z,12.52
2022-12-31T11:42:20.385Z,12.48
2022-12-31T11:45:04.688Z,12.79
2022-12-31T11:48:28.993Z,12.89
2022-12-31T11:51:09.931Z,13.57
2022-12-31T11:54:19.028Z,13.80
2022-12-31T11:57:25.038Z,14.08
2022-12-31T11:59:59.341Z,14.29
2022-12-31T12:02:38.214Z,14.28
2022-12-31T12:05:10.918Z,14.51
2022-12-31T12:07:39.899Z,15.35
2022-12-31T12:10:33.550Z,16.91
2022-12-31T12:13:15.066Z,17.25
2022-12-31T12:15:50.399Z,17.74
2022-12-31T12:18:42.355Z,17.66
2022-12-31T12:21:14.725Z,18.22
2022-12-31T12:24:17.631Z,19.68
2022-12-31T12:26:48.711Z,20.93
2022-12-31T12:29:30.574Z,21.02
2022-12-31T12:32:16.293Z,21.67
2022-12-31T12:34:49.664Z,21.57
2022-12-31T12:37:38.713Z,22.77
2022-12-31T12:40:22.881Z,22.72
2022-12-31T12:42:53.688Z,23.16
2022-12-31T12:45:26.220Z,23.93
2022-12-31T12:48:08.015Z,24.11
2022-12-31T12:50:44.016Z,24.23
2022-12-31T12:53:20.249Z,23.91
2022-12-31T12:56:38.011Z,23.93
2022-12-31T12:59:09.216Z,23.88
2022-12-31T13:01:42.777Z,23.45
2022-12-31T13:04:33.996Z,22.95
2022-12-31T13:07:10.017Z,22.65
2022-12-31T13:10:20.123Z,22.90
2022-12-31T13:16:01.613Z,23.73
2022-12-31T13:19:14.150Z,24.29
2022-12-31T13:21:53.541Z,24.44
2022-12-31T13:24:48.311Z,25.51
2022-12-31T13:27:28.940Z,25.85
2022-12-31T13:30:05.095Z,25.29
2022-12-31T13:32:45.258Z,25.43
2022-12-31T13:35:35.075Z,25.47
2022-12-31T13:38:29.824Z,25.30
2022-12-31T13:40:58.128Z,25.69
2022-12-31T13:43:35.546Z,26.00
2022-12-31T13:46:13.597Z,27.24
2022-12-31T13:49:10.417Z,27.33
2022-12-31T13:51:53.763Z,28.18
2022-12-31T13:54:22.034Z,28.24
2022-12-31T13:56:52.376Z,28.82
2022-12-31T13:59:43.501Z,29.18
2022-12-31T14:02:41.332Z,28.96
2022-12-31T14:05:12.728Z,29.60
2022-12-31T14:08:02.131Z,30.00
2022-12-31T14:10:39.402Z,30.22
2022-12-31T14:13:22.927Z,30.88
2022-12-31T14:16:17.277Z,30.95
2022-12-31T14:19:12.313Z,31.57
2022-12-31T14:22:04.247Z,32.51
2022-12-31T14:24:44.126Z,32.68
2022-12-31T14:27:24.855Z,32.57
2022-12-31T14:30:06.656Z,32.94
2022-12-31T14:32:57.393Z,33.01
2022-12-31T14:35:31.491Z,32.74
2022-12-31T14:38:04.780Z,31.94
2022-12-31T14:40:43.971Z,31.62
2022-12-31T14:43:49.495Z,31.15
2022-12-31T14:46:36.626Z,30.30
2022-12-31T14:49:47.160Z,29.78
2022-12-31T14:52:18.036Z,29.73
2022-12-31T14:54:46.283Z,29.58
2022-12-31T14:57:17.753Z,29.73
2022-12-31T15:00:00.192Z,30.37
2022-12-31T15:02:35.631Z,31.28
2022-12-31T15:05:16.725Z,30.71
2022-12-31T15:07:48.182Z,30.47
2022-12-31T15:10:25.375Z,30.67
2022-12-31T15:13:07.338Z,31.27
2022-12-31T15:16:02.286Z,32.13
2022-12-31T15:19:02.853Z,32.35
2022-12-31T15:21:34.187Z,33.28
2022-12-31T15:24:13.339Z,34.28
2022-12-31T15:26:58.912Z,33.97
2022-12-31T15:29:51.557Z,34.18
2022-12-31T15:32:25.395Z,33.75
2022-12-31T15:35:30.010Z,33.89
2022-12-31T15:38:15.824Z,34.15
2022-12-31T15:40:52.445Z,34.30
2022-12-31T15:43:44.129Z,34.64
2022-12-31T15:46:21.188Z,34.73
2022-12-31T15:49:04.277Z,35.16
2022-12-31T15:52:01.615Z,35.22
2022-12-31T15:54:42.721Z,35.68
2022-12-31T15:57:23.023Z,36.42
2022-12-31T15:59:58.471Z,37.05
2022-12-31T16:02:29.282Z,37.12
2022-12-31T16:04:57.703Z,37.76
2022-12-31T16:07:28.493Z,37.95
2022-12-31T16:10:00.472Z,39.24
2022-12-31T16:12:39.409Z,39.52
2022-12-31T16:15:22.186Z,39.50
2022-12-31T16:18:05.522Z,40.25
2022-12-31T16:20:40.880Z,39.88
2022-12-31T16:23:42.065Z,41.44
2022-12-31T16:26:12.063Z,42.65
2022-12-31T16:28:40.450Z,43.32
2022-12-31T16:31:17.004Z,42.99
2022-12-31T16:33:46.555Z,43.27
2022-12-31T16:36:20.469Z,44.81
2022-12-31T16:38:49.327Z,45.27
2022-12-31T16:41:19.205Z,44.31
2022-12-31T16:43:51.039Z,44.49
2022-12-31T16:46:38.448Z,45.62
2022-12-31T16:49:19.092Z,44.90
2022-12-31T16:51:47.850Z,45.98
2022-12-31T16:54:26.272Z,45.41
2022-12-31T16:56:54.633Z,45.84
2022-12-31T16:59:35.720Z,46.49
2022-12-31T17:02:16.525Z,46.47
2022-12-31T17:04:56.101Z,46.59
2022-12-31T17:07:26.550Z,47.07
2022-12-31T17:10:07.028Z,47.14
2022-12-31T17:13:08.760Z,47.03
2022-12-31T17:15:41.656Z,46.65
2022-12-31T17:18:20.712Z,45.71
2022-12-31T17:20:54.600Z,46.07
2022-12-31T17:23:32.004Z,46.12
2022-12-31T17:26:07.492Z,46.11
2022-12-31T17:28:48.587Z,45.78
2022-12-31T17:31:38.408Z,45.40
2022-12-31T17:34:12.721Z,45.82
2022-12-31T17:36:52.209Z,45.19
2022-12-31T17:39:23.189Z,45.47
2022-12-31T17:41:55.889Z,45.04
2022-12-31T17:44:28.020Z,45.61
2022-12-31T17:46:56.370Z,44.43
2022-12-31T17:49:30.587Z,44.33
2022-12-31T17:51:58.978Z,44.67
2022-12-31T17:54:27.127Z,44.67
2022-12-31T17:56:55.331Z,44.20
2022-12-31T17:59:26.233Z,44.04
2022-12-31T18:01:55.076Z,43.74
2022-12-31T18:04:23.396Z,43.52
2022-12-31T18:06:52.029Z,43.45
2022-12-31T18:09:22.350Z,43.36
2022-12-31T18:11:50.570Z,42.93
2022-12-31T18:14:18.759Z,43.15
2022-12-31T18:16:47.295Z,42.65
2022-12-31T18:19:45.600Z,42.86
2022-12-31T18:22:04.695Z,42.56
2022-12-31T18:24:33.453Z,42.54
2022-12-31T18:27:01.626Z,42.33
2022-12-31T18:29:29.905Z,42.02
2022-12-31T18:32:01.036Z,42.23
2022-12-31T18:34:29.817Z,42.37
2022-12-31T18:36:59.457Z,42.25
2022-12-31T18:39:27.645Z,42.27
2022-12-31T18:41:56.437Z,42.49
2022-12-31T18:44:25.065Z,42.59
2022-12-31T18:46:53.316Z,42.62
2022-12-31T18:49:21.678Z,42.35
2022-12-31T18:51:50.058Z,42.18
2022-12-31T18:54:18.346Z,42.18
2022-12-31T18:56:50.221Z,41.85
2022-12-31T18:59:20.966Z,41.51
2022-12-31T19:01:49.553Z,41.69
2022-12-31T19:04:26.938Z,41.60
2022-12-31T19:06:56.999Z,41.22
2022-12-31T19:09:45.226Z,40.84
2022-12-31T19:12:15.418Z,40.85
2022-12-31T19:14:43.688Z,40.40
2022-12-31T19:17:12.020Z,40.46
2022-12-31T19:19:40.308Z,40.03
2022-12-31T19:22:15.053Z,40.49
2022-12-31T19:24:43.464Z,40.25
2022-12-31T19:27:14.890Z,39.97
2022-12-31T19:29:43.146Z,39.55
2022-12-31T19:32:11.891Z,39.12
2022-12-31T19:34:40.176Z,39.81
2022-12-31T19:37:19.553Z,39.40
2022-12-31T19:39:48.469Z,39.24
2022-12-31T19:42:17.511Z,38.31
2022-12-31T19:44:45.847Z,38.79
2022-12-31T19:47:14.482Z,38.79
2022-12-31T19:49:43.029Z,37.72
2022-12-31T19:52:11.384Z,38.23
2022-12-31T19:54:39.640Z,37.23
2022-12-31T19:57:07.952Z,37.16
2022-12-31T19:59:36.630Z,36.81
2022-12-31T20:02:04.982Z,36.93
2022-12-31T20:04:33.391Z,36.61
2022-12-31T20:07:01.722Z,36.85
2022-12-31T20:09:30.118Z,36.30
2022-12-31T20:11:58.573Z,36.28
2022-12-31T20:14:27.543Z,35.92
2022-12-31T20:16:55.903Z,35.70
2022-12-31T20:19:24.130Z,35.19
2022-12-31T20:21:52.401Z,35.48
2022-12-31T20:24:20.807Z,35.22
2022-12-31T20:26:49.114Z,34.70
2022-12-31T20:29:17.546Z,34.97
2022-12-31T20:31:45.735Z,34.93
2022-12-31T20:34:14.521Z,34.48
2022-12-31T20:36:42.962Z,34.41
2022-12-31T20:39:11.443Z,34.47
2022-12-31T20:41:40.191Z,34.40
2022-12-31T20:44:09.414Z,34.08
2022-12-31T20:46:37.746Z,33.85
2022-12-31T20:49:06.720Z,33.79
2022-12-31T20:51:35.461Z,33.94
2022-12-31T20:54:06.549Z,33.63
2022-12-31T20:56:37.516Z,33.85
2022-12-31T20:59:07.440Z,33.96
2022-12-31T21:02:11.682Z,33.51
2022-12-31T21:04:26.278Z,33.44
2022-12-31T21:06:54.994Z,33.40
2022-12-31T21:09:23.295Z,33.24
2022-12-31T21:11:51.645Z,33.37
2022-12-31T21:14:19.892Z,32.97
2022-12-31T21:16:48.349Z,33.08
2022-12-31T21:19:17.288Z,33.37
2022-12-31T21:21:45.731Z,33.16
2022-12-31T21:24:17.453Z,33.05
2022-12-31T21:26:48.696Z,33.41
2022-12-31T21:29:16.982Z,33.06
2022-12-31T21:31:45.173Z,33.24
2022-12-31T21:34:13.747Z,33.18
2022-12-31T21:36:42.056Z,33.11
2022-12-31T21:39:10.273Z,33.02
2022-12-31T21:41:38.949Z,32.78
2022-12-31T21:44:07.216Z,32.94
2022-12-31T21:46:35.677Z,33.13
2022-12-31T21:49:04.611Z,32.72
2022-12-31T21:51:32.872Z,32.73
2022-12-31T21:54:01.060Z,33.20
2022-12-31T21:56:29.742Z,32.94
2022-12-31T21:59:00.116Z,32.96
2022-12-31T22:01:28.601Z,32.49
2022-12-31T22:03:57.601Z,32.37
2022-12-31T22:06:26.374Z,32.57
2022-12-31T22:08:56.391Z,32.54
2022-12-31T22:11:28.376Z,32.69
2022-12-31T22:13:59.257Z,32.40
2022-12-31T22:16:27.547Z,32.34
2022-12-31T22:18:56.661Z,32.08
2022-12-31T22:21:27.400Z,32.53
2022-12-31T22:23:57.330Z,32.50
2022-12-31T22:26:28.150Z,32.30
2022-12-31T22:28:56.636Z,32.10
2022-12-31T22:31:27.647Z,32.18
2022-12-31T22:33:56.256Z,32.07
2022-12-31T22:36:26.513Z,32.08
2022-12-31T22:38:57.169Z,31.88
2022-12-31T22:41:27.859Z,32.19
2022-12-31T22:44:03.766Z,32.34
2022-12-31T22:46:34.481Z,31.74
2022-12-31T22:49:04.812Z,32.30
2022-12-31T22:51:57.198Z,32.27
2022-12-31T22:54:22.831Z,32.04
2022-12-31T22:56:51.112Z,32.07
2022-12-31T22:59:19.651Z,32.28
2022-12-31T23:01:48.111Z,32.24
2022-12-31T23:04:16.368Z,31.76
2022-12-31T23:06:45.206Z,32.27
2022-12-31T23:09:15.965Z,31.80
2022-12-31T23:11:44.709Z,31.89
2022-12-31T23:14:17.738Z,31.61
2022-12-31T23:16:46.443Z,31.83
2022-12-31T23:19:16.219Z,31.91
2022-12-31T23:21:45.236Z,31.82
2022-12-31T23:24:20.143Z,31.58
2022-12-31T23:26:51.149Z,31.22
2022-12-31T23:29:19.339Z,31.31
2022-12-31T23:31:47.617Z,31.60
2022-12-31T23:34:16.161Z,31.54
2022-12-31T23:36:44.756Z,31.11
2022-12-31T23:39:13.235Z,31.36
2022-12-31T23:41:41.946Z,31.28
2022-12-31T23:44:11.177Z,31.20
2022-12-31T23:46:40.279Z,31.54
2022-12-31T23:49:09.181Z,31.76
2022-12-31T23:51:37.795Z,31.90
2022-12-31T23:54:06.562Z,32.04
2022-12-31T23:56:34.920Z,32.10
2022-12-31T23:59:03.274Z,32.13
